sensor_id;sensor_type;location;lat;lon;timestamp;P1;durP1;ratioP1;P2;durP2;ratioP2
11685;SDS011;5899;51.282;6.094;2022-10-16T00:02:02;7.55;;;6.57;;
11685;SDS011;5899;51.282;6.094;2022-10-16T00:04:30;8.73;;;6.70;;
11685;SDS011;5899;51.282;6.094;2022-10-16T00:06:58;8.05;;;6.53;;
11685;SDS011;5899;51.282;6.094;2022-10-16T00:09:28;6.88;;;6.15;;
11685;SDS011;5899;51.282;6.094;2022-10-16T00:11:57;6.53;;;5.63;;
11685;SDS011;5899;51.282;6.094;2022-10-16T00:14:25;6.55;;;5.85;;
11685;SDS011;5899;51.282;6.094;2022-10-16T00:16:51;6.20;;;5.30;;
11685;SDS011;5899;51.282;6.094;2022-10-16T00:19:20;5.73;;;5.13;;
11685;SDS011;5899;51.282;6.094;2022-10-16T00:21:48;6.72;;;5.10;;
11685;SDS011;5899;51.282;6.094;2022-10-16T00:24:16;6.20;;;5.53;;
11685;SDS011;5899;51.282;6.094;2022-10-16T00:26:44;7.07;;;5.43;;
11685;SDS011;5899;51.282;6.094;2022-10-16T00:29:16;6.97;;;5.60;;
11685;SDS011;5899;51.282;6.094;2022-10-16T00:31:44;5.43;;;4.70;;
11685;SDS011;5899;51.282;6.094;2022-10-16T00:34:13;5.32;;;4.35;;
11685;SDS011;5899;51.282;6.094;2022-10-16T00:36:39;5.17;;;4.27;;
11685;SDS011;5899;51.282;6.094;2022-10-16T00:39:07;5.28;;;4.43;;
11685;SDS011;5899;51.282;6.094;2022-10-16T00:41:38;5.90;;;4.50;;
11685;SDS011;5899;51.282;6.094;2022-10-16T00:46:52;5.70;;;4.65;;
11685;SDS011;5899;51.282;6.094;2022-10-16T00:49:19;6.70;;;4.30;;
11685;SDS011;5899;51.282;6.094;2022-10-16T00:51:49;5.68;;;4.70;;
11685;SDS011;5899;51.282;6.094;2022-10-16T00:54:21;6.30;;;5.00;;
11685;SDS011;5899;51.282;6.094;2022-10-16T00:56:48;9.90;;;5.20;;
11685;SDS011;5899;51.282;6.094;2022-10-16T00:59:16;6.20;;;5.15;;
11685;SDS011;5899;51.282;6.094;2022-10-16T01:01:46;5.72;;;5.10;;
11685;SDS011;5899;51.282;6.094;2022-10-16T01:04:13;5.37;;;4.87;;
11685;SDS011;5899;51.282;6.094;2022-10-16T01:06:41;6.68;;;4.70;;
11685;SDS011;5899;51.282;6.094;2022-10-16T01:09:11;5.88;;;5.30;;
11685;SDS011;5899;51.282;6.094;2022-10-16T01:11:41;5.25;;;4.75;;
11685;SDS011;5899;51.282;6.094;2022-10-16T01:14:14;5.10;;;4.15;;
11685;SDS011;5899;51.282;6.094;2022-10-16T01:16:47;5.87;;;4.13;;
11685;SDS011;5899;51.282;6.094;2022-10-16T01:19:19;4.72;;;4.05;;
11685;SDS011;5899;51.282;6.094;2022-10-16T01:21:46;6.73;;;4.43;;
11685;SDS011;5899;51.282;6.094;2022-10-16T01:24:17;4.65;;;4.15;;
11685;SDS011;5899;51.282;6.094;2022-10-16T01:27:02;4.25;;;3.72;;
11685;SDS011;5899;51.282;6.094;2022-10-16T01:29:29;4.10;;;3.70;;
11685;SDS011;5899;51.282;6.094;2022-10-16T01:32:02;5.45;;;3.50;;
11685;SDS011;5899;51.282;6.094;2022-10-16T01:34:32;5.35;;;3.95;;
11685;SDS011;5899;51.282;6.094;2022-10-16T01:37:02;4.75;;;3.42;;
11685;SDS011;5899;51.282;6.094;2022-10-16T01:39:31;4.75;;;3.15;;
11685;SDS011;5899;51.282;6.094;2022-10-16T01:41:59;5.47;;;3.30;;
11685;SDS011;5899;51.282;6.094;2022-10-16T01:44:29;3.95;;;2.97;;
11685;SDS011;5899;51.282;6.094;2022-10-16T01:47:01;4.50;;;3.03;;
11685;SDS011;5899;51.282;6.094;2022-10-16T01:49:31;3.55;;;2.90;;
11685;SDS011;5899;51.282;6.094;2022-10-16T01:52:02;3.95;;;3.28;;
11685;SDS011;5899;51.282;6.094;2022-10-16T01:54:30;5.97;;;3.88;;
11685;SDS011;5899;51.282;6.094;2022-10-16T01:56:57;4.20;;;2.80;;
11685;SDS011;5899;51.282;6.094;2022-10-16T01:59:25;5.53;;;3.38;;
11685;SDS011;5899;51.282;6.094;2022-10-16T02:01:55;4.68;;;3.38;;
11685;SDS011;5899;51.282;6.094;2022-10-16T02:04:23;5.30;;;3.65;;
11685;SDS011;5899;51.282;6.094;2022-10-16T02:06:51;4.53;;;3.10;;
11685;SDS011;5899;51.282;6.094;2022-10-16T02:09:18;5.10;;;3.22;;
11685;SDS011;5899;51.282;6.094;2022-10-16T02:11:47;4.78;;;3.17;;
11685;SDS011;5899;51.282;6.094;2022-10-16T02:14:14;4.97;;;3.35;;
11685;SDS011;5899;51.282;6.094;2022-10-16T02:16:41;3.70;;;2.80;;
11685;SDS011;5899;51.282;6.094;2022-10-16T02:19:10;4.95;;;3.17;;
11685;SDS011;5899;51.282;6.094;2022-10-16T02:21:39;3.95;;;3.30;;
11685;SDS011;5899;51.282;6.094;2022-10-16T02:24:11;4.70;;;3.10;;
11685;SDS011;5899;51.282;6.094;2022-10-16T02:26:41;5.75;;;3.70;;
11685;SDS011;5899;51.282;6.094;2022-10-16T02:29:12;4.75;;;3.10;;
11685;SDS011;5899;51.282;6.094;2022-10-16T02:31:41;3.25;;;2.72;;
11685;SDS011;5899;51.282;6.094;2022-10-16T02:34:10;3.90;;;2.80;;
11685;SDS011;5899;51.282;6.094;2022-10-16T02:36:38;3.67;;;3.10;;
11685;SDS011;5899;51.282;6.094;2022-10-16T02:39:05;4.32;;;3.35;;
11685;SDS011;5899;51.282;6.094;2022-10-16T02:41:32;4.55;;;3.20;;
11685;SDS011;5899;51.282;6.094;2022-10-16T02:44:00;4.18;;;2.88;;
11685;SDS011;5899;51.282;6.094;2022-10-16T02:46:27;4.35;;;2.90;;
11685;SDS011;5899;51.282;6.094;2022-10-16T02:48:58;4.22;;;2.80;;
11685;SDS011;5899;51.282;6.094;2022-10-16T02:51:26;4.15;;;3.00;;
11685;SDS011;5899;51.282;6.094;2022-10-16T02:53:57;4.03;;;3.30;;
11685;SDS011;5899;51.282;6.094;2022-10-16T02:56:23;4.65;;;3.25;;
11685;SDS011;5899;51.282;6.094;2022-10-16T02:58:50;3.50;;;3.20;;
11685;SDS011;5899;51.282;6.094;2022-10-16T03:01:18;3.22;;;2.92;;
11685;SDS011;5899;51.282;6.094;2022-10-16T03:03:45;3.97;;;3.03;;
11685;SDS011;5899;51.282;6.094;2022-10-16T03:06:13;3.63;;;3.10;;
11685;SDS011;5899;51.282;6.094;2022-10-16T03:08:43;3.33;;;3.03;;
11685;SDS011;5899;51.282;6.094;2022-10-16T03:11:09;3.95;;;3.10;;
11685;SDS011;5899;51.282;6.094;2022-10-16T03:13:36;3.40;;;3.10;;
11685;SDS011;5899;51.282;6.094;2022-10-16T03:16:03;3.53;;;3.13;;
11685;SDS011;5899;51.282;6.094;2022-10-16T03:18:29;5.22;;;3.22;;
11685;SDS011;5899;51.282;6.094;2022-10-16T03:20:56;3.35;;;2.70;;
11685;SDS011;5899;51.282;6.094;2022-10-16T03:23:22;3.70;;;2.85;;
11685;SDS011;5899;51.282;6.094;2022-10-16T03:25:50;3.85;;;3.00;;
11685;SDS011;5899;51.282;6.094;2022-10-16T03:28:19;3.47;;;3.10;;
11685;SDS011;5899;51.282;6.094;2022-10-16T03:30:45;3.70;;;2.90;;
11685;SDS011;5899;51.282;6.094;2022-10-16T03:33:12;3.30;;;3.00;;
11685;SDS011;5899;51.282;6.094;2022-10-16T03:35:41;4.50;;;3.20;;
11685;SDS011;5899;51.282;6.094;2022-10-16T03:38:07;3.78;;;2.92;;
11685;SDS011;5899;51.282;6.094;2022-10-16T03:40:34;3.60;;;3.20;;
11685;SDS011;5899;51.282;6.094;2022-10-16T03:43:04;3.45;;;3.10;;
11685;SDS011;5899;51.282;6.094;2022-10-16T03:45:36;3.20;;;2.80;;
11685;SDS011;5899;51.282;6.094;2022-10-16T03:48:03;3.08;;;2.80;;
11685;SDS011;5899;51.282;6.094;2022-10-16T03:50:32;3.88;;;3.25;;
11685;SDS011;5899;51.282;6.094;2022-10-16T03:52:58;5.78;;;3.83;;
11685;SDS011;5899;51.282;6.094;2022-10-16T03:55:25;4.40;;;3.58;;
11685;SDS011;5899;51.282;6.094;2022-10-16T03:57:51;4.70;;;3.60;;
11685;SDS011;5899;51.282;6.094;2022-10-16T04:00:22;4.35;;;3.72;;
11685;SDS011;5899;51.282;6.094;2022-10-16T04:02:48;3.45;;;3.00;;
11685;SDS011;5899;51.282;6.094;2022-10-16T04:05:16;5.10;;;3.30;;
11685;SDS011;5899;51.282;6.094;2022-10-16T04:07:43;4.00;;;3.60;;
11685;SDS011;5899;51.282;6.094;2022-10-16T04:10:09;4.43;;;3.72;;
11685;SDS011;5899;51.282;6.094;2022-10-16T04:12:45;3.65;;;3.08;;
11685;SDS011;5899;51.282;6.094;2022-10-16T04:15:11;3.83;;;3.45;;
11685;SDS011;5899;51.282;6.094;2022-10-16T04:17:41;4.40;;;3.80;;
11685;SDS011;5899;51.282;6.094;2022-10-16T04:20:10;4.72;;;3.65;;
11685;SDS011;5899;51.282;6.094;2022-10-16T04:22:36;3.88;;;3.35;;
11685;SDS011;5899;51.282;6.094;2022-10-16T04:25:04;5.00;;;3.50;;
11685;SDS011;5899;51.282;6.094;2022-10-16T04:27:30;4.30;;;3.30;;
11685;SDS011;5899;51.282;6.094;2022-10-16T04:29:57;4.80;;;3.33;;
11685;SDS011;5899;51.282;6.094;2022-10-16T04:32:28;4.75;;;3.15;;
11685;SDS011;5899;51.282;6.094;2022-10-16T04:35:00;5.03;;;3.33;;
11685;SDS011;5899;51.282;6.094;2022-10-16T04:37:28;4.60;;;3.30;;
11685;SDS011;5899;51.282;6.094;2022-10-16T04:40:02;3.20;;;2.87;;
11685;SDS011;5899;51.282;6.094;2022-10-16T04:42:28;4.95;;;2.80;;
11685;SDS011;5899;51.282;6.094;2022-10-16T04:44:55;3.53;;;3.20;;
11685;SDS011;5899;51.282;6.094;2022-10-16T04:47:21;3.40;;;2.63;;
11685;SDS011;5899;51.282;6.094;2022-10-16T04:49:49;3.10;;;2.60;;
11685;SDS011;5899;51.282;6.094;2022-10-16T04:52:23;5.13;;;3.67;;
11685;SDS011;5899;51.282;6.094;2022-10-16T04:54:51;3.78;;;2.92;;
11685;SDS011;5899;51.282;6.094;2022-10-16T04:57:18;4.22;;;2.80;;
11685;SDS011;5899;51.282;6.094;2022-10-16T04:59:54;3.28;;;2.70;;
11685;SDS011;5899;51.282;6.094;2022-10-16T05:02:20;3.22;;;2.80;;
11685;SDS011;5899;51.282;6.094;2022-10-16T05:04:47;3.55;;;2.60;;
11685;SDS011;5899;51.282;6.094;2022-10-16T05:07:19;3.65;;;2.63;;
11685;SDS011;5899;51.282;6.094;2022-10-16T05:09:55;3.38;;;2.50;;
11685;SDS011;5899;51.282;6.094;2022-10-16T05:12:23;3.53;;;2.60;;
11685;SDS011;5899;51.282;6.094;2022-10-16T05:14:51;4.32;;;2.85;;
11685;SDS011;5899;51.282;6.094;2022-10-16T05:17:17;3.10;;;2.80;;
11685;SDS011;5899;51.282;6.094;2022-10-16T05:19:44;3.38;;;2.97;;
11685;SDS011;5899;51.282;6.094;2022-10-16T05:22:12;4.50;;;3.00;;
11685;SDS011;5899;51.282;6.094;2022-10-16T05:24:40;3.88;;;3.03;;
11685;SDS011;5899;51.282;6.094;2022-10-16T05:27:09;3.70;;;2.83;;
11685;SDS011;5899;51.282;6.094;2022-10-16T05:29:35;3.42;;;2.97;;
11685;SDS011;5899;51.282;6.094;2022-10-16T05:32:02;3.78;;;3.25;;
11685;SDS011;5899;51.282;6.094;2022-10-16T05:34:29;5.07;;;3.22;;
11685;SDS011;5899;51.282;6.094;2022-10-16T05:36:57;4.00;;;3.03;;
11685;SDS011;5899;51.282;6.094;2022-10-16T05:39:25;5.18;;;3.20;;
11685;SDS011;5899;51.282;6.094;2022-10-16T05:41:54;4.38;;;3.47;;
11685;SDS011;5899;51.282;6.094;2022-10-16T05:44:22;3.72;;;3.42;;
11685;SDS011;5899;51.282;6.094;2022-10-16T05:46:48;3.63;;;3.00;;
11685;SDS011;5899;51.282;6.094;2022-10-16T05:49:15;3.72;;;3.40;;
11685;SDS011;5899;51.282;6.094;2022-10-16T05:51:41;4.93;;;3.55;;
11685;SDS011;5899;51.282;6.094;2022-10-16T05:54:08;4.38;;;3.45;;
11685;SDS011;5899;51.282;6.094;2022-10-16T05:56:34;5.03;;;3.50;;
11685;SDS011;5899;51.282;6.094;2022-10-16T05:59:02;3.97;;;3.58;;
11685;SDS011;5899;51.282;6.094;2022-10-16T06:01:32;4.05;;;3.75;;
11685;SDS011;5899;51.282;6.094;2022-10-16T06:04:00;6.22;;;4.05;;
11685;SDS011;5899;51.282;6.094;2022-10-16T06:06:28;7.75;;;3.90;;
11685;SDS011;5899;51.282;6.094;2022-10-16T06:08:57;4.43;;;3.85;;
11685;SDS011;5899;51.282;6.094;2022-10-16T06:11:25;3.97;;;3.53;;
11685;SDS011;5899;51.282;6.094;2022-10-16T06:13:53;4.27;;;3.87;;
11685;SDS011;5899;51.282;6.094;2022-10-16T06:16:22;4.53;;;3.93;;
11685;SDS011;5899;51.282;6.094;2022-10-16T06:18:55;4.80;;;3.70;;
11685;SDS011;5899;51.282;6.094;2022-10-16T06:21:23;4.22;;;3.83;;
11685;SDS011;5899;51.282;6.094;2022-10-16T06:23:51;4.13;;;3.83;;
11685;SDS011;5899;51.282;6.094;2022-10-16T06:26:20;4.80;;;3.30;;
11685;SDS011;5899;51.282;6.094;2022-10-16T06:28:47;4.05;;;3.65;;
11685;SDS011;5899;51.282;6.094;2022-10-16T06:31:16;4.38;;;3.97;;
11685;SDS011;5899;51.282;6.094;2022-10-16T06:33:57;3.83;;;3.47;;
11685;SDS011;5899;51.282;6.094;2022-10-16T06:36:25;4.78;;;4.03;;
11685;SDS011;5899;51.282;6.094;2022-10-16T06:38:52;4.40;;;3.75;;
11685;SDS011;5899;51.282;6.094;2022-10-16T06:41:21;4.90;;;4.20;;
11685;SDS011;5899;51.282;6.094;2022-10-16T06:43:48;5.03;;;4.47;;
11685;SDS011;5899;51.282;6.094;2022-10-16T06:46:15;5.32;;;4.80;;
11685;SDS011;5899;51.282;6.094;2022-10-16T06:48:43;6.30;;;4.00;;
11685;SDS011;5899;51.282;6.094;2022-10-16T06:51:10;5.53;;;4.22;;
11685;SDS011;5899;51.282;6.094;2022-10-16T06:53:39;5.25;;;4.50;;
11685;SDS011;5899;51.282;6.094;2022-10-16T06:56:07;5.82;;;4.80;;
11685;SDS011;5899;51.282;6.094;2022-10-16T06:58:33;4.68;;;4.28;;
11685;SDS011;5899;51.282;6.094;2022-10-16T07:01:00;5.15;;;4.50;;
11685;SDS011;5899;51.282;6.094;2022-10-16T07:03:26;5.00;;;4.50;;
11685;SDS011;5899;51.282;6.094;2022-10-16T07:05:53;7.13;;;4.80;;
11685;SDS011;5899;51.282;6.094;2022-10-16T07:08:19;6.07;;;4.55;;
11685;SDS011;5899;51.282;6.094;2022-10-16T07:10:47;4.60;;;4.20;;
11685;SDS011;5899;51.282;6.094;2022-10-16T07:13:14;4.90;;;4.50;;
11685;SDS011;5899;51.282;6.094;2022-10-16T07:15:40;5.70;;;4.72;;
11685;SDS011;5899;51.282;6.094;2022-10-16T07:18:07;5.30;;;4.80;;
11685;SDS011;5899;51.282;6.094;2022-10-16T07:20:34;5.32;;;4.82;;
11685;SDS011;5899;51.282;6.094;2022-10-16T07:23:00;5.03;;;4.40;;
11685;SDS011;5899;51.282;6.094;2022-10-16T07:25:27;5.55;;;5.05;;
11685;SDS011;5899;51.282;6.094;2022-10-16T07:27:55;5.38;;;4.90;;
11685;SDS011;5899;51.282;6.094;2022-10-16T07:30:21;4.97;;;4.47;;
11685;SDS011;5899;51.282;6.094;2022-10-16T07:32:48;5.20;;;4.70;;
11685;SDS011;5899;51.282;6.094;2022-10-16T07:35:14;5.70;;;4.95;;
11685;SDS011;5899;51.282;6.094;2022-10-16T07:37:43;5.95;;;4.72;;
11685;SDS011;5899;51.282;6.094;2022-10-16T07:40:10;6.75;;;5.28;;
11685;SDS011;5899;51.282;6.094;2022-10-16T07:42:36;5.32;;;4.38;;
11685;SDS011;5899;51.282;6.094;2022-10-16T07:45:07;5.80;;;4.47;;
11685;SDS011;5899;51.282;6.094;2022-10-16T07:47:34;6.22;;;4.80;;
11685;SDS011;5899;51.282;6.094;2022-10-16T07:50:00;6.22;;;4.90;;
11685;SDS011;5899;51.282;6.094;2022-10-16T07:52:27;6.13;;;5.22;;
11685;SDS011;5899;51.282;6.094;2022-10-16T07:54:53;5.00;;;4.53;;
11685;SDS011;5899;51.282;6.094;2022-10-16T07:57:20;5.10;;;4.57;;
11685;SDS011;5899;51.282;6.094;2022-10-16T07:59:46;5.85;;;4.53;;
11685;SDS011;5899;51.282;6.094;2022-10-16T08:02:14;4.57;;;3.88;;
11685;SDS011;5899;51.282;6.094;2022-10-16T08:04:41;3.72;;;3.35;;
11685;SDS011;5899;51.282;6.094;2022-10-16T08:07:07;5.60;;;3.47;;
11685;SDS011;5899;51.282;6.094;2022-10-16T08:09:34;3.53;;;3.17;;
11685;SDS011;5899;51.282;6.094;2022-10-16T08:12:00;5.07;;;3.40;;
11685;SDS011;5899;51.282;6.094;2022-10-16T08:14:27;4.75;;;3.20;;
11685;SDS011;5899;51.282;6.094;2022-10-16T08:16:55;4.35;;;3.03;;
11685;SDS011;5899;51.282;6.094;2022-10-16T08:19:22;4.43;;;3.10;;
11685;SDS011;5899;51.282;6.094;2022-10-16T08:21:49;5.10;;;3.20;;
11685;SDS011;5899;51.282;6.094;2022-10-16T08:24:15;4.53;;;3.15;;
11685;SDS011;5899;51.282;6.094;2022-10-16T08:26:42;4.40;;;3.20;;
11685;SDS011;5899;51.282;6.094;2022-10-16T08:29:08;4.00;;;3.03;;
11685;SDS011;5899;51.282;6.094;2022-10-16T08:31:35;3.88;;;2.90;;
11685;SDS011;5899;51.282;6.094;2022-10-16T08:34:01;3.75;;;2.45;;
11685;SDS011;5899;51.282;6.094;2022-10-16T08:36:29;4.70;;;2.90;;
11685;SDS011;5899;51.282;6.094;2022-10-16T08:38:55;2.93;;;2.37;;
11685;SDS011;5899;51.282;6.094;2022-10-16T08:41:29;5.07;;;2.38;;
11685;SDS011;5899;51.282;6.094;2022-10-16T08:44:02;3.67;;;2.70;;
11685;SDS011;5899;51.282;6.094;2022-10-16T08:46:34;3.88;;;2.10;;
11685;SDS011;5899;51.282;6.094;2022-10-16T08:49:03;5.03;;;2.40;;
11685;SDS011;5899;51.282;6.094;2022-10-16T08:51:37;4.18;;;2.20;;
11685;SDS011;5899;51.282;6.094;2022-10-16T08:54:05;3.70;;;2.35;;
11685;SDS011;5899;51.282;6.094;2022-10-16T08:56:31;3.72;;;2.30;;
11685;SDS011;5899;51.282;6.094;2022-10-16T08:59:00;3.83;;;2.15;;
11685;SDS011;5899;51.282;6.094;2022-10-16T09:01:38;3.67;;;2.30;;
11685;SDS011;5899;51.282;6.094;2022-10-16T09:06:53;3.83;;;2.20;;
11685;SDS011;5899;51.282;6.094;2022-10-16T09:12:04;4.10;;;2.22;;
11685;SDS011;5899;51.282;6.094;2022-10-16T09:17:30;4.43;;;2.15;;
11685;SDS011;5899;51.282;6.094;2022-10-16T09:20:00;4.22;;;2.10;;
11685;SDS011;5899;51.282;6.094;2022-10-16T09:22:31;3.50;;;2.15;;
11685;SDS011;5899;51.282;6.094;2022-10-16T09:24:59;3.67;;;2.15;;
11685;SDS011;5899;51.282;6.094;2022-10-16T09:27:28;4.55;;;2.20;;
11685;SDS011;5899;51.282;6.094;2022-10-16T09:29:58;2.83;;;1.90;;
11685;SDS011;5899;51.282;6.094;2022-10-16T09:32:25;7.47;;;2.20;;
11685;SDS011;5899;51.282;6.094;2022-10-16T09:34:52;2.63;;;2.13;;
11685;SDS011;5899;51.282;6.094;2022-10-16T09:37:21;4.07;;;1.80;;
11685;SDS011;5899;51.282;6.094;2022-10-16T09:39:50;3.35;;;2.10;;
11685;SDS011;5899;51.282;6.094;2022-10-16T09:42:17;3.60;;;1.90;;
11685;SDS011;5899;51.282;6.094;2022-10-16T09:44:49;2.72;;;1.80;;
11685;SDS011;5899;51.282;6.094;2022-10-16T09:47:20;4.15;;;2.00;;
11685;SDS011;5899;51.282;6.094;2022-10-16T09:49:54;3.75;;;2.08;;
11685;SDS011;5899;51.282;6.094;2022-10-16T09:52:32;3.20;;;1.90;;
11685;SDS011;5899;51.282;6.094;2022-10-16T09:55:13;3.88;;;1.90;;
11685;SDS011;5899;51.282;6.094;2022-10-16T09:57:54;2.60;;;1.90;;
11685;SDS011;5899;51.282;6.094;2022-10-16T10:00:29;3.47;;;1.63;;
11685;SDS011;5899;51.282;6.094;2022-10-16T10:03:11;4.03;;;2.10;;
11685;SDS011;5899;51.282;6.094;2022-10-16T10:05:41;3.83;;;1.97;;
11685;SDS011;5899;51.282;6.094;2022-10-16T10:08:16;2.33;;;1.50;;
11685;SDS011;5899;51.282;6.094;2022-10-16T10:10:47;4.00;;;1.63;;
11685;SDS011;5899;51.282;6.094;2022-10-16T10:13:26;3.45;;;1.70;;
11685;SDS011;5899;51.282;6.094;2022-10-16T10:15:53;3.40;;;1.92;;
11685;SDS011;5899;51.282;6.094;2022-10-16T10:18:30;3.13;;;1.60;;
11685;SDS011;5899;51.282;6.094;2022-10-16T10:20:57;2.90;;;1.60;;
11685;SDS011;5899;51.282;6.094;2022-10-16T10:23:27;2.92;;;1.65;;
11685;SDS011;5899;51.282;6.094;2022-10-16T10:25:56;3.97;;;1.90;;
11685;SDS011;5899;51.282;6.094;2022-10-16T10:28:36;3.97;;;1.85;;
11685;SDS011;5899;51.282;6.094;2022-10-16T10:31:12;4.30;;;2.08;;
11685;SDS011;5899;51.282;6.094;2022-10-16T10:33:44;2.83;;;1.77;;
11685;SDS011;5899;51.282;6.094;2022-10-16T10:36:25;3.50;;;1.83;;
11685;SDS011;5899;51.282;6.094;2022-10-16T10:38:57;2.63;;;1.60;;
11685;SDS011;5899;51.282;6.094;2022-10-16T10:41:44;2.92;;;1.50;;
11685;SDS011;5899;51.282;6.094;2022-10-16T10:44:19;3.77;;;1.60;;
11685;SDS011;5899;51.282;6.094;2022-10-16T10:46:56;3.27;;;1.70;;
11685;SDS011;5899;51.282;6.094;2022-10-16T10:49:31;2.58;;;1.60;;
11685;SDS011;5899;51.282;6.094;2022-10-16T10:52:08;2.83;;;1.70;;
11685;SDS011;5899;51.282;6.094;2022-10-16T10:54:41;3.00;;;1.60;;
11685;SDS011;5899;51.282;6.094;2022-10-16T10:57:12;3.42;;;1.55;;
11685;SDS011;5899;51.282;6.094;2022-10-16T10:59:56;2.47;;;1.60;;
11685;SDS011;5899;51.282;6.094;2022-10-16T11:02:26;3.17;;;1.50;;
11685;SDS011;5899;51.282;6.094;2022-10-16T11:05:02;3.15;;;1.50;;
11685;SDS011;5899;51.282;6.094;2022-10-16T11:07:36;2.38;;;1.50;;
11685;SDS011;5899;51.282;6.094;2022-10-16T11:10:12;3.60;;;1.80;;
11685;SDS011;5899;51.282;6.094;2022-10-16T11:12:54;3.13;;;1.80;;
11685;SDS011;5899;51.282;6.094;2022-10-16T11:15:28;3.22;;;1.70;;
11685;SDS011;5899;51.282;6.094;2022-10-16T11:18:40;3.03;;;1.85;;
11685;SDS011;5899;51.282;6.094;2022-10-16T11:21:00;3.35;;;1.60;;
11685;SDS011;5899;51.282;6.094;2022-10-16T11:23:33;2.13;;;1.50;;
11685;SDS011;5899;51.282;6.094;2022-10-16T11:26:04;4.13;;;1.73;;
11685;SDS011;5899;51.282;6.094;2022-10-16T11:28:34;4.03;;;1.80;;
11685;SDS011;5899;51.282;6.094;2022-10-16T11:31:02;2.55;;;1.60;;
11685;SDS011;5899;51.282;6.094;2022-10-16T11:33:32;3.05;;;1.63;;
11685;SDS011;5899;51.282;6.094;2022-10-16T11:36:04;6.82;;;1.90;;
11685;SDS011;5899;51.282;6.094;2022-10-16T11:38:34;2.55;;;1.70;;
11685;SDS011;5899;51.282;6.094;2022-10-16T11:41:03;3.20;;;1.80;;
11685;SDS011;5899;51.282;6.094;2022-10-16T11:43:34;3.20;;;1.90;;
11685;SDS011;5899;51.282;6.094;2022-10-16T11:46:08;3.85;;;1.70;;
11685;SDS011;5899;51.282;6.094;2022-10-16T11:48:51;4.60;;;2.00;;
11685;SDS011;5899;51.282;6.094;2022-10-16T11:51:25;2.15;;;1.50;;
11685;SDS011;5899;51.282;6.094;2022-10-16T11:53:57;2.85;;;1.65;;
11685;SDS011;5899;51.282;6.094;2022-10-16T11:56:27;4.07;;;1.60;;
11685;SDS011;5899;51.282;6.094;2022-10-16T11:58:57;2.40;;;1.50;;
11685;SDS011;5899;51.282;6.094;2022-10-16T12:01:30;3.10;;;1.60;;
11685;SDS011;5899;51.282;6.094;2022-10-16T12:04:12;2.85;;;1.38;;
11685;SDS011;5899;51.282;6.094;2022-10-16T12:06:46;2.58;;;1.48;;
11685;SDS011;5899;51.282;6.094;2022-10-16T12:09:27;2.47;;;1.60;;
11685;SDS011;5899;51.282;6.094;2022-10-16T12:11:55;4.07;;;1.80;;
11685;SDS011;5899;51.282;6.094;2022-10-16T12:14:33;4.88;;;1.67;;
11685;SDS011;5899;51.282;6.094;2022-10-16T12:17:22;2.77;;;1.70;;
11685;SDS011;5899;51.282;6.094;2022-10-16T12:19:56;3.17;;;1.60;;
11685;SDS011;5899;51.282;6.094;2022-10-16T12:22:26;2.75;;;1.50;;
11685;SDS011;5899;51.282;6.094;2022-10-16T12:24:57;3.22;;;1.50;;
11685;SDS011;5899;51.282;6.094;2022-10-16T12:27:24;3.13;;;1.70;;
11685;SDS011;5899;51.282;6.094;2022-10-16T12:29:58;4.10;;;1.80;;
11685;SDS011;5899;51.282;6.094;2022-10-16T12:32:27;2.65;;;1.40;;
11685;SDS011;5899;51.282;6.094;2022-10-16T12:34:54;3.05;;;1.80;;
11685;SDS011;5899;51.282;6.094;2022-10-16T12:37:28;1.98;;;1.50;;
11685;SDS011;5899;51.282;6.094;2022-10-16T12:39:56;4.90;;;1.80;;
11685;SDS011;5899;51.282;6.094;2022-10-16T12:42:30;3.65;;;1.55;;
11685;SDS011;5899;51.282;6.094;2022-10-16T12:45:00;2.78;;;1.63;;
11685;SDS011;5899;51.282;6.094;2022-10-16T12:47:38;3.08;;;1.50;;
11685;SDS011;5899;51.282;6.094;2022-10-16T12:50:26;3.67;;;1.63;;
11685;SDS011;5899;51.282;6.094;2022-10-16T12:52:53;3.80;;;1.60;;
11685;SDS011;5899;51.282;6.094;2022-10-16T12:55:20;4.18;;;1.63;;
11685;SDS011;5899;51.282;6.094;2022-10-16T12:57:53;3.03;;;1.50;;
11685;SDS011;5899;51.282;6.094;2022-10-16T13:00:26;3.60;;;1.63;;
11685;SDS011;5899;51.282;6.094;2022-10-16T13:03:02;15.60;;;2.90;;
11685;SDS011;5899;51.282;6.094;2022-10-16T13:05:38;2.60;;;1.40;;
11685;SDS011;5899;51.282;6.094;2022-10-16T13:08:17;2.88;;;1.50;;
11685;SDS011;5899;51.282;6.094;2022-10-16T13:10:52;2.72;;;1.50;;
11685;SDS011;5899;51.282;6.094;2022-10-16T13:13:29;2.75;;;1.42;;
11685;SDS011;5899;51.282;6.094;2022-10-16T13:16:10;3.38;;;1.60;;
11685;SDS011;5899;51.282;6.094;2022-10-16T13:18:43;3.08;;;1.90;;
11685;SDS011;5899;51.282;6.094;2022-10-16T13:21:17;2.03;;;1.40;;
11685;SDS011;5899;51.282;6.094;2022-10-16T13:23:48;3.65;;;1.55;;
11685;SDS011;5899;51.282;6.094;2022-10-16T13:26:20;1.33;;;1.20;;
11685;SDS011;5899;51.282;6.094;2022-10-16T13:28:50;2.60;;;1.40;;
11685;SDS011;5899;51.282;6.094;2022-10-16T13:31:20;3.20;;;1.60;;
11685;SDS011;5899;51.282;6.094;2022-10-16T13:33:48;3.53;;;1.60;;
11685;SDS011;5899;51.282;6.094;2022-10-16T13:36:18;2.75;;;1.45;;
11685;SDS011;5899;51.282;6.094;2022-10-16T13:38:45;2.28;;;1.30;;
11685;SDS011;5899;51.282;6.094;2022-10-16T13:41:13;2.60;;;1.58;;
11685;SDS011;5899;51.282;6.094;2022-10-16T13:43:40;2.05;;;1.35;;
11685;SDS011;5899;51.282;6.094;2022-10-16T13:46:11;2.35;;;1.60;;
11685;SDS011;5899;51.282;6.094;2022-10-16T13:48:40;3.42;;;1.42;;
11685;SDS011;5899;51.282;6.094;2022-10-16T13:51:10;2.80;;;1.45;;
11685;SDS011;5899;51.282;6.094;2022-10-16T13:53:38;3.47;;;1.60;;
11685;SDS011;5899;51.282;6.094;2022-10-16T13:56:11;2.90;;;1.80;;
11685;SDS011;5899;51.282;6.094;2022-10-16T13:58:38;2.92;;;1.50;;
11685;SDS011;5899;51.282;6.094;2022-10-16T14:01:15;2.38;;;1.38;;
11685;SDS011;5899;51.282;6.094;2022-10-16T14:03:44;3.20;;;1.50;;
11685;SDS011;5899;51.282;6.094;2022-10-16T14:06:13;4.70;;;1.70;;
11685;SDS011;5899;51.282;6.094;2022-10-16T14:08:43;2.67;;;1.45;;
11685;SDS011;5899;51.282;6.094;2022-10-16T14:11:11;2.05;;;1.50;;
11685;SDS011;5899;51.282;6.094;2022-10-16T14:13:39;3.00;;;1.70;;
11685;SDS011;5899;51.282;6.094;2022-10-16T14:16:10;1.80;;;1.50;;
11685;SDS011;5899;51.282;6.094;2022-10-16T14:18:44;3.63;;;1.63;;
11685;SDS011;5899;51.282;6.094;2022-10-16T14:21:18;3.85;;;1.40;;
11685;SDS011;5899;51.282;6.094;2022-10-16T14:23:48;3.53;;;1.60;;
11685;SDS011;5899;51.282;6.094;2022-10-16T14:26:40;3.17;;;1.60;;
11685;SDS011;5899;51.282;6.094;2022-10-16T14:29:13;3.30;;;1.60;;
11685;SDS011;5899;51.282;6.094;2022-10-16T14:31:41;3.08;;;1.73;;
11685;SDS011;5899;51.282;6.094;2022-10-16T14:34:25;2.80;;;1.50;;
11685;SDS011;5899;51.282;6.094;2022-10-16T14:37:13;2.28;;;1.52;;
11685;SDS011;5899;51.282;6.094;2022-10-16T14:39:57;4.65;;;1.65;;
11685;SDS011;5899;51.282;6.094;2022-10-16T14:42:57;2.35;;;1.50;;
11685;SDS011;5899;51.282;6.094;2022-10-16T14:45:52;2.10;;;1.50;;
11685;SDS011;5899;51.282;6.094;2022-10-16T14:48:40;2.20;;;1.60;;
11685;SDS011;5899;51.282;6.094;2022-10-16T14:51:14;2.05;;;1.45;;
11685;SDS011;5899;51.282;6.094;2022-10-16T14:59:51;3.53;;;1.87;;
11685;SDS011;5899;51.282;6.094;2022-10-16T15:02:27;3.35;;;1.70;;
11685;SDS011;5899;51.282;6.094;2022-10-16T15:05:01;2.78;;;1.70;;
11685;SDS011;5899;51.282;6.094;2022-10-16T15:07:34;3.00;;;1.80;;
11685;SDS011;5899;51.282;6.094;2022-10-16T15:10:02;3.92;;;1.95;;
11685;SDS011;5899;51.282;6.094;2022-10-16T15:12:29;4.00;;;2.00;;
11685;SDS011;5899;51.282;6.094;2022-10-16T15:14:58;5.47;;;2.60;;
11685;SDS011;5899;51.282;6.094;2022-10-16T15:17:25;3.22;;;2.22;;
11685;SDS011;5899;51.282;6.094;2022-10-16T15:19:53;2.95;;;1.90;;
11685;SDS011;5899;51.282;6.094;2022-10-16T15:22:24;4.00;;;1.98;;
11685;SDS011;5899;51.282;6.094;2022-10-16T15:24:50;5.25;;;2.22;;
11685;SDS011;5899;51.282;6.094;2022-10-16T15:27:17;4.35;;;1.80;;
11685;SDS011;5899;51.282;6.094;2022-10-16T15:29:43;2.60;;;1.92;;
11685;SDS011;5899;51.282;6.094;2022-10-16T15:32:14;4.20;;;2.17;;
11685;SDS011;5899;51.282;6.094;2022-10-16T15:34:40;4.43;;;2.20;;
11685;SDS011;5899;51.282;6.094;2022-10-16T15:37:08;3.70;;;1.90;;